Terminal Aerodrome Forecast
Issued by NWS Bismarck, ND

Home | Current Version | Previous Version | Graphics & Text | Print | Product List | Glossary On
Versions: 1 2 3 4 5 6 7 8 9 10 11 12 13 14 15 16 17 18 19 20 21 22
000
FTUS43 KBIS 300526
TAFISN
TAF
KISN 300526Z 3006/3106 15005KT 5SM FU BKN250
      TEMPO 3010/3014 2SM FU BKN250
     FM301600 20007KT P6SM BKN250
     FM301800 32010KT P6SM BKN250
     FM310000 34008KT P6SM SCT080 SCT150 BKN250=

USA.gov is the U.S. government's official web portal to all federal, state and local government web resources and services.